TimeAKDT,TemperatureF,Dew PointF,Humidity,Sea Level PressureIn,VisibilityMPH,Wind Direction,Wind SpeedMPH,Gust SpeedMPH,PrecipitationIn,Events,Conditions,WindDirDegrees,DateUTC
12:53 AM,57.0,37.0,47,29.75,10.0,SE,10.4,-,N/A,,Clear,130,2013-09-11 08:53:00
1:53 AM,50.0,39.0,66,29.75,10.0,ESE,9.2,-,N/A,,Clear,110,2013-09-11 09:53:00
2:53 AM,48.0,39.0,71,29.74,10.0,ESE,5.8,-,N/A,,Clear,110,2013-09-11 10:53:00
3:53 AM,46.9,39.0,74,29.73,10.0,ESE,5.8,-,N/A,,Clear,120,2013-09-11 11:53:00
4:53 AM,46.0,39.0,76,29.71,10.0,ESE,8.1,-,N/A,,Clear,120,2013-09-11 12:53:00
5:53 AM,46.0,39.0,76,29.69,10.0,East,6.9,-,N/A,,Clear,90,2013-09-11 13:53:00
6:53 AM,46.0,39.9,79,29.67,10.0,ESE,3.5,-,0.00,Rain,Light Rain,110,2013-09-11 14:53:00
7:53 AM,46.0,41.0,83,29.65,10.0,Calm,Calm,-,0.01,Rain,Light Rain,0,2013-09-11 15:53:00
8:53 AM,46.9,43.0,86,29.63,10.0,East,11.5,-,0.01,Rain,Light Rain,100,2013-09-11 16:53:00
9:53 AM,48.0,45.0,89,29.62,10.0,ESE,10.4,-,0.03,Rain,Light Rain,120,2013-09-11 17:53:00
10:02 AM,48.2,44.6,87,29.60,10.0,ESE,5.8,-,0.00,,Overcast,110,2013-09-11 18:02:00
10:53 AM,50.0,46.0,86,29.60,10.0,East,15.0,-,0.00,,Mostly Cloudy,100,2013-09-11 18:53:00
11:53 AM,51.1,46.9,86,29.58,10.0,SE,12.7,-,N/A,,Overcast,130,2013-09-11 19:53:00
12:53 PM,54.0,46.9,77,29.57,10.0,ESE,16.1,-,N/A,,Mostly Cloudy,110,2013-09-11 20:53:00
1:53 PM,57.0,45.0,64,29.57,10.0,Variable,5.8,25.3,N/A,,Mostly Cloudy,0,2013-09-11 21:53:00
2:14 PM,59.0,39.2,48,29.56,10.0,South,28.8,40.3,N/A,,Mostly Cloudy,190,2013-09-11 22:14:00
2:53 PM,55.9,43.0,62,29.59,10.0,WSW,10.4,21.9,N/A,,Overcast,250,2013-09-11 22:53:00
3:53 PM,57.0,43.0,59,29.61,10.0,WSW,15.0,-,N/A,,Mostly Cloudy,240,2013-09-11 23:53:00
4:53 PM,53.1,46.0,77,29.64,10.0,WNW,10.4,-,N/A,,Overcast,290,2013-09-12 00:53:00
5:53 PM,50.0,44.1,80,29.70,10.0,WNW,9.2,-,N/A,,Overcast,290,2013-09-12 01:53:00
6:04 PM,50.0,44.6,82,29.67,10.0,West,6.9,-,0.00,Rain,Light Rain,280,2013-09-12 02:04:00
6:26 PM,48.2,46.4,93,29.68,5.0,WNW,4.6,-,0.02,Rain,Light Rain,290,2013-09-12 02:26:00
6:53 PM,48.9,46.0,90,29.72,10.0,NW,6.9,-,0.02,,Overcast,320,2013-09-12 02:53:00
7:06 PM,48.2,44.6,87,29.70,10.0,NW,6.9,-,N/A,,Overcast,310,2013-09-12 03:06:00
7:53 PM,48.0,44.1,86,29.76,10.0,West,5.8,-,0.00,Rain,Light Rain,270,2013-09-12 03:53:00
8:53 PM,46.9,44.1,90,29.80,10.0,West,6.9,-,0.01,Rain,Light Rain,270,2013-09-12 04:53:00
9:33 PM,46.4,42.8,87,29.78,10.0,WNW,3.5,-,0.00,Rain,Light Rain,290,2013-09-12 05:33:00
9:53 PM,46.9,43.0,86,29.82,10.0,Calm,Calm,-,0.01,Rain,Light Rain,0,2013-09-12 05:53:00
10:53 PM,46.9,44.1,90,29.85,10.0,Calm,Calm,-,0.00,Rain,Light Rain,0,2013-09-12 06:53:00
11:53 PM,46.9,44.1,90,29.88,10.0,Calm,Calm,-,0.01,Rain,Light Rain,0,2013-09-12 07:53:00